Time;durP1;ratioP1;P1;durP2;ratioP2;P2;SDS_P1;SDS_P2;PMS_P1;PMS_P2;Temp;Humidity;BMP_temperature;BMP_pressure;BME280_temperature;BME280_humidity;BME280_pressure;Samples;Min_cycle;Max_cycle;Signal;HPM_P1;HPM_P2
2023/02/11 00:01:59;;;;;;;40.78;24.27;;;;;;;;;;5134915;27;20196;-60
2023/02/11 00:04:26;;;;;;;41.33;23.90;;;;;;;;;;5134825;27;20216;-60
2023/02/11 00:06:54;;;;;;;38.17;22.63;;;;;;;;;;5134806;27;20283;-59
2023/02/11 00:09:21;;;;;;;38.72;23.52;;;;;;;;;;5134638;27;20197;-59
2023/02/11 00:11:47;;;;;;;36.88;23.20;;;;;;;;;;5134493;27;20195;-60
2023/02/11 00:14:16;;;;;;;40.42;24.75;;;;;;;;;;5134436;27;20224;-59
2023/02/11 00:16:43;;;;;;;37.33;23.02;;;;;;;;;;5134596;27;20203;-59
2023/02/11 00:19:10;;;;;;;41.92;22.70;;;;;;;;;;5134690;27;20185;-59
2023/02/11 00:21:37;;;;;;;40.47;23.55;;;;;;;;;;5133802;27;20670;-59
2023/02/11 00:24:04;;;;;;;40.53;23.33;;;;;;;;;;5134253;27;20606;-60
2023/02/11 00:26:32;;;;;;;35.05;22.95;;;;;;;;;;5134272;27;20188;-59
2023/02/11 00:28:59;;;;;;;38.22;24.70;;;;;;;;;;5134447;27;20194;-59
2023/02/11 00:31:28;;;;;;;42.22;23.52;;;;;;;;;;5134393;27;20204;-59
2023/02/11 00:33:55;;;;;;;33.88;22.00;;;;;;;;;;5134333;27;20546;-61
2023/02/11 00:36:23;;;;;;;34.78;22.60;;;;;;;;;;5134274;27;20200;-61
2023/02/11 00:38:50;;;;;;;38.10;22.60;;;;;;;;;;5134116;27;20193;-61
2023/02/11 00:41:18;;;;;;;35.70;22.90;;;;;;;;;;5134047;27;20225;-61
2023/02/11 00:43:45;;;;;;;38.55;23.58;;;;;;;;;;5134172;27;20584;-61
2023/02/11 00:46:12;;;;;;;41.17;24.30;;;;;;;;;;5133841;27;20219;-61
2023/02/11 00:48:40;;;;;;;38.53;22.73;;;;;;;;;;5133824;27;20188;-61
2023/02/11 00:51:08;;;;;;;44.15;24.08;;;;;;;;;;5134024;27;20275;-61
2023/02/11 00:53:35;;;;;;;39.15;22.40;;;;;;;;;;5133852;27;20196;-61
2023/02/11 00:56:02;;;;;;;36.60;22.45;;;;;;;;;;5134131;27;20556;-61
2023/02/11 00:58:30;;;;;;;39.30;24.27;;;;;;;;;;5133949;27;20195;-61
2023/02/11 01:00:57;;;;;;;34.65;22.20;;;;;;;;;;5134033;27;20188;-61
2023/02/11 01:03:24;;;;;;;35.25;22.73;;;;;;;;;;5133723;28;20687;-61
2023/02/11 01:05:52;;;;;;;34.78;23.38;;;;;;;;;;5133946;28;20189;-61
2023/02/11 01:08:19;;;;;;;39.75;24.75;;;;;;;;;;5134280;28;20222;-61
2023/02/11 01:10:46;;;;;;;39.60;22.95;;;;;;;;;;5133949;28;20556;-61
2023/02/11 01:13:13;;;;;;;35.90;22.63;;;;;;;;;;5133892;28;20200;-61
2023/02/11 01:15:40;;;;;;;31.35;21.85;;;;;;;;;;5133809;28;20199;-61
2023/02/11 01:18:07;;;;;;;39.53;22.33;;;;;;;;;;5133723;28;20199;-61
2023/02/11 01:20:34;;;;;;;35.20;22.02;;;;;;;;;;5133640;28;20193;-61
2023/02/11 01:23:02;;;;;;;35.17;22.65;;;;;;;;;;5133750;28;20222;-61
2023/02/11 01:25:29;;;;;;;32.60;22.20;;;;;;;;;;5133587;28;20317;-61
2023/02/11 01:27:56;;;;;;;33.58;22.60;;;;;;;;;;5133690;28;20188;-61
2023/02/11 01:30:23;;;;;;;35.20;21.30;;;;;;;;;;5133567;28;20189;-61
2023/02/11 01:32:50;;;;;;;35.63;22.50;;;;;;;;;;5135514;27;20189;-61
2023/02/11 01:35:17;;;;;;;36.72;22.52;;;;;;;;;;5137647;27;20213;-61
2023/02/11 01:37:44;;;;;;;37.30;23.48;;;;;;;;;;5137793;27;20192;-61
2023/02/11 01:40:14;;;;;;;35.22;22.45;;;;;;;;;;5137624;27;20199;-61
2023/02/11 01:42:41;;;;;;;33.33;21.60;;;;;;;;;;5137596;27;20196;-61
2023/02/11 01:45:23;;;;;;;30.63;20.27;;;;;;;;;;5137230;27;20228;-61
2023/02/11 01:47:50;;;;;;;30.27;21.45;;;;;;;;;;5136583;27;20197;-61
2023/02/11 01:50:17;;;;;;;34.58;21.08;;;;;;;;;;5137497;27;20189;-61
2023/02/11 01:52:46;;;;;;;32.88;21.20;;;;;;;;;;5137469;27;20189;-60
2023/02/11 01:58:01;;;;;;;33.80;21.58;;;;;;;;;;5137337;27;20263;-61
2023/02/11 02:00:31;;;;;;;32.72;22.98;;;;;;;;;;5137086;27;20197;-61
2023/02/11 02:03:01;;;;;;;33.72;22.33;;;;;;;;;;5137254;27;20189;-61
2023/02/11 02:05:31;;;;;;;34.75;21.63;;;;;;;;;;5137102;27;20194;-61
2023/02/11 02:08:04;;;;;;;37.95;22.60;;;;;;;;;;5137152;27;20362;-61
2023/02/11 02:10:34;;;;;;;38.53;22.27;;;;;;;;;;5136960;27;20188;-61
2023/02/11 02:13:01;;;;;;;42.70;22.42;;;;;;;;;;5137114;27;20303;-61
2023/02/11 02:15:30;;;;;;;35.92;23.02;;;;;;;;;;5137066;27;20193;-61
2023/02/11 02:17:59;;;;;;;36.63;22.48;;;;;;;;;;5136944;27;20280;-61
2023/02/11 02:20:38;;;;;;;42.80;21.98;;;;;;;;;;5136849;27;20184;-61
2023/02/11 02:23:15;;;;;;;38.67;22.48;;;;;;;;;;5136638;27;20276;-61
2023/02/11 02:25:52;;;;;;;34.47;22.00;;;;;;;;;;5136890;27;20197;-61
2023/02/11 02:28:29;;;;;;;30.58;21.20;;;;;;;;;;5136828;27;20284;-61
2023/02/11 02:31:14;;;;;;;36.22;22.17;;;;;;;;;;5136640;27;20276;-61
2023/02/11 02:33:44;;;;;;;38.97;23.15;;;;;;;;;;5136459;27;20192;-61
2023/02/11 02:36:15;;;;;;;37.38;22.40;;;;;;;;;;5136433;27;20702;-61
2023/02/11 02:38:48;;;;;;;35.35;23.40;;;;;;;;;;5136467;27;20196;-61
2023/02/11 02:41:17;;;;;;;32.72;20.10;;;;;;;;;;5136522;27;20197;-61
2023/02/11 02:43:45;;;;;;;34.60;23.02;;;;;;;;;;5135315;27;20686;-61
2023/02/11 02:46:13;;;;;;;35.00;22.95;;;;;;;;;;5136082;27;20235;-61
2023/02/11 02:48:40;;;;;;;37.25;22.30;;;;;;;;;;5136393;27;20185;-61
2023/02/11 02:51:14;;;;;;;34.92;21.40;;;;;;;;;;5136371;27;20198;-61
2023/02/11 02:53:45;;;;;;;38.70;22.35;;;;;;;;;;5136216;27;20522;-61
2023/02/11 02:56:14;;;;;;;39.42;23.60;;;;;;;;;;5136168;27;20200;-61
2023/02/11 02:59:01;;;;;;;37.13;23.98;;;;;;;;;;5135945;27;20186;-61
2023/02/11 03:01:32;;;;;;;33.30;21.55;;;;;;;;;;5136121;27;20292;-61
2023/02/11 03:04:03;;;;;;;32.28;21.70;;;;;;;;;;5136004;27;20218;-61
2023/02/11 03:06:34;;;;;;;37.90;22.98;;;;;;;;;;5136003;27;20284;-60
2023/02/11 03:09:03;;;;;;;35.05;21.70;;;;;;;;;;5135813;27;20543;-61
2023/02/11 03:11:30;;;;;;;34.05;22.30;;;;;;;;;;5136017;27;20185;-61
2023/02/11 03:13:57;;;;;;;36.08;22.77;;;;;;;;;;5135873;27;20192;-61
2023/02/11 03:16:27;;;;;;;37.45;22.70;;;;;;;;;;5135793;27;20211;-61
2023/02/11 03:18:57;;;;;;;36.42;23.27;;;;;;;;;;5135601;27;20194;-61
2023/02/11 03:21:25;;;;;;;37.55;24.35;;;;;;;;;;5135564;27;20188;-61
2023/02/11 03:23:55;;;;;;;38.17;23.00;;;;;;;;;;5135385;27;20256;-61
2023/02/11 03:26:24;;;;;;;36.72;22.08;;;;;;;;;;5135885;27;20185;-61
2023/02/11 03:28:55;;;;;;;38.73;25.10;;;;;;;;;;5135559;27;20447;-61
2023/02/11 03:31:26;;;;;;;35.50;23.27;;;;;;;;;;5135482;27;20453;-61
2023/02/11 03:33:56;;;;;;;29.77;21.17;;;;;;;;;;5135287;27;20201;-61
2023/02/11 03:36:24;;;;;;;33.03;23.95;;;;;;;;;;5136044;27;20200;-61
2023/02/11 03:38:54;;;;;;;34.38;22.08;;;;;;;;;;5135200;27;20193;-61
2023/02/11 03:41:24;;;;;;;38.85;22.38;;;;;;;;;;5135227;27;20242;-61
2023/02/11 03:43:51;;;;;;;38.13;23.05;;;;;;;;;;5135149;27;20204;-61
2023/02/11 03:46:20;;;;;;;36.65;22.42;;;;;;;;;;5134922;27;20239;-61
2023/02/11 03:48:49;;;;;;;37.53;23.40;;;;;;;;;;5134940;27;20191;-61
2023/02/11 03:51:16;;;;;;;31.98;22.67;;;;;;;;;;5134959;27;20652;-61
2023/02/11 03:53:44;;;;;;;35.00;22.63;;;;;;;;;;5135086;27;20559;-61
2023/02/11 03:56:15;;;;;;;38.08;24.40;;;;;;;;;;5134996;27;20211;-61
2023/02/11 03:58:44;;;;;;;38.75;23.20;;;;;;;;;;5134975;27;20190;-61
2023/02/11 04:01:11;;;;;;;36.10;23.13;;;;;;;;;;5134742;27;20552;-61
2023/02/11 04:03:38;;;;;;;38.20;23.55;;;;;;;;;;5134812;27;20195;-61
2023/02/11 04:06:06;;;;;;;38.75;23.73;;;;;;;;;;5135055;27;20185;-61
2023/02/11 04:08:32;;;;;;;38.63;24.65;;;;;;;;;;5134824;27;20546;-61
2023/02/11 04:10:59;;;;;;;40.50;24.17;;;;;;;;;;5134711;27;20189;-61
2023/02/11 04:13:26;;;;;;;34.70;23.50;;;;;;;;;;5134566;27;20190;-61
2023/02/11 04:15:55;;;;;;;34.78;23.55;;;;;;;;;;5134427;27;20197;-61
2023/02/11 04:18:22;;;;;;;35.13;23.92;;;;;;;;;;5134725;27;20193;-61
2023/02/11 04:20:49;;;;;;;40.45;23.30;;;;;;;;;;5134580;27;20196;-61
2023/02/11 04:23:16;;;;;;;36.78;25.33;;;;;;;;;;5134445;27;20191;-60
2023/02/11 04:25:43;;;;;;;37.67;23.40;;;;;;;;;;5134289;27;20223;-61
2023/02/11 04:28:10;;;;;;;39.67;25.00;;;;;;;;;;5134286;27;20190;-61
2023/02/11 04:30:37;;;;;;;35.85;24.13;;;;;;;;;;5134501;27;20196;-60
2023/02/11 04:33:05;;;;;;;39.65;24.25;;;;;;;;;;5134552;27;20297;-61
2023/02/11 04:35:32;;;;;;;37.30;24.90;;;;;;;;;;5134497;27;20193;-61
2023/02/11 04:37:59;;;;;;;39.10;25.00;;;;;;;;;;5134297;27;20543;-61
2023/02/11 04:40:26;;;;;;;37.10;23.27;;;;;;;;;;5134145;27;20189;-61
2023/02/11 04:42:53;;;;;;;37.38;23.73;;;;;;;;;;5134129;27;20229;-61
2023/02/11 04:45:20;;;;;;;41.80;25.80;;;;;;;;;;5134036;27;20368;-61
2023/02/11 04:47:47;;;;;;;39.17;27.35;;;;;;;;;;5134198;27;20189;-61
2023/02/11 04:50:15;;;;;;;38.00;25.23;;;;;;;;;;5134075;27;20741;-60
2023/02/11 04:52:42;;;;;;;39.10;25.85;;;;;;;;;;5134071;27;20194;-61
2023/02/11 04:55:09;;;;;;;38.13;25.67;;;;;;;;;;5133922;27;20615;-61
2023/02/11 04:57:36;;;;;;;40.75;25.30;;;;;;;;;;5134165;27;20195;-60
2023/02/11 05:00:04;;;;;;;39.65;26.25;;;;;;;;;;5133995;27;20197;-61
2023/02/11 05:02:31;;;;;;;42.13;24.92;;;;;;;;;;5133985;27;20190;-61
2023/02/11 05:04:58;;;;;;;36.58;24.75;;;;;;;;;;5133815;28;20576;-61
2023/02/11 05:07:26;;;;;;;37.50;24.35;;;;;;;;;;5136787;27;20555;-60
2023/02/11 05:09:53;;;;;;;39.85;25.38;;;;;;;;;;5140598;27;20186;-61
2023/02/11 05:12:20;;;;;;;42.88;26.98;;;;;;;;;;5140622;27;20709;-61
2023/02/11 05:14:47;;;;;;;38.58;25.38;;;;;;;;;;5140748;27;20192;-61
2023/02/11 05:17:14;;;;;;;40.22;25.63;;;;;;;;;;5140660;27;20263;-61
2023/02/11 05:19:42;;;;;;;42.65;26.70;;;;;;;;;;5140616;27;20185;-60
2023/02/11 05:22:09;;;;;;;47.70;27.20;;;;;;;;;;5140566;27;20278;-60
2023/02/11 05:24:37;;;;;;;42.03;27.42;;;;;;;;;;5140321;27;20559;-61
2023/02/11 05:27:04;;;;;;;37.53;26.00;;;;;;;;;;5140458;27;20674;-61
2023/02/11 05:29:31;;;;;;;49.80;28.45;;;;;;;;;;5140584;27;20196;-61
2023/02/11 05:31:59;;;;;;;41.97;28.65;;;;;;;;;;5141474;27;20261;-60
2023/02/11 05:34:26;;;;;;;41.58;28.02;;;;;;;;;;5140432;27;20188;-60
2023/02/11 05:36:53;;;;;;;44.33;27.48;;;;;;;;;;5140296;27;20190;-60
2023/02/11 05:39:20;;;;;;;44.15;28.13;;;;;;;;;;5140589;27;20552;-60
2023/02/11 05:41:48;;;;;;;41.75;27.70;;;;;;;;;;5140527;27;20190;-61
2023/02/11 05:44:15;;;;;;;46.65;28.85;;;;;;;;;;5140305;27;20196;-60
2023/02/11 05:46:42;;;;;;;39.30;26.13;;;;;;;;;;5140111;27;20221;-60
2023/02/11 05:49:09;;;;;;;42.05;27.92;;;;;;;;;;5140366;27;20594;-61
2023/02/11 05:51:36;;;;;;;54.78;30.60;;;;;;;;;;5140194;27;20197;-61
2023/02/11 05:54:03;;;;;;;46.40;28.83;;;;;;;;;;5140481;27;20641;-60
2023/02/11 05:56:30;;;;;;;41.70;28.55;;;;;;;;;;5140330;27;20459;-60
2023/02/11 05:59:00;;;;;;;48.08;29.80;;;;;;;;;;5140276;27;20558;-61
2023/02/11 06:01:27;;;;;;;43.58;28.90;;;;;;;;;;5140314;27;20659;-60
2023/02/11 06:03:54;;;;;;;49.72;29.58;;;;;;;;;;5140152;27;20317;-60
2023/02/11 06:06:21;;;;;;;48.08;30.25;;;;;;;;;;5139934;27;20264;-61
2023/02/11 06:08:47;;;;;;;46.92;29.60;;;;;;;;;;5140303;27;20530;-61
2023/02/11 06:11:15;;;;;;;39.90;27.95;;;;;;;;;;5140129;27;20613;-60
2023/02/11 06:13:42;;;;;;;45.83;29.40;;;;;;;;;;5139996;27;20649;-60
2023/02/11 06:16:10;;;;;;;50.20;30.75;;;;;;;;;;5140135;27;20540;-61
2023/02/11 06:18:37;;;;;;;41.67;28.40;;;;;;;;;;5137541;27;20288;-61
2023/02/11 06:21:07;;;;;;;48.78;29.38;;;;;;;;;;5136916;27;20284;-60
2023/02/11 06:23:34;;;;;;;45.65;28.38;;;;;;;;;;5136898;27;20281;-60
2023/02/11 06:26:02;;;;;;;47.53;29.10;;;;;;;;;;5136696;27;20383;-61
2023/02/11 06:28:30;;;;;;;51.42;31.15;;;;;;;;;;5136540;27;20654;-61
2023/02/11 06:30:57;;;;;;;44.95;30.30;;;;;;;;;;5136505;27;20196;-60
2023/02/11 06:33:25;;;;;;;49.47;31.30;;;;;;;;;;5136511;27;20186;-61
2023/02/11 06:35:52;;;;;;;45.38;30.42;;;;;;;;;;5136592;27;20558;-61
2023/02/11 06:38:19;;;;;;;52.03;31.03;;;;;;;;;;5136295;27;20647;-61
2023/02/11 06:40:48;;;;;;;49.72;31.33;;;;;;;;;;5136489;27;20800;-61
2023/02/11 06:43:14;;;;;;;50.78;31.25;;;;;;;;;;5136364;27;20220;-60
2023/02/11 06:45:41;;;;;;;47.35;30.95;;;;;;;;;;5135897;27;20232;-61
2023/02/11 06:48:08;;;;;;;46.15;30.30;;;;;;;;;;5136234;27;20186;-61
2023/02/11 06:50:37;;;;;;;56.63;31.52;;;;;;;;;;5136441;27;20185;-61
2023/02/11 06:53:03;;;;;;;56.10;33.60;;;;;;;;;;5136279;27;20216;-60
2023/02/11 06:55:30;;;;;;;48.03;31.83;;;;;;;;;;5136190;27;20186;-61
2023/02/11 06:57:57;;;;;;;56.65;32.83;;;;;;;;;;5135759;27;20196;-61
2023/02/11 07:00:25;;;;;;;48.47;30.88;;;;;;;;;;5135605;27;20196;-60
2023/02/11 07:02:52;;;;;;;50.10;31.95;;;;;;;;;;5135931;27;20731;-61
2023/02/11 07:05:19;;;;;;;55.93;33.80;;;;;;;;;;5135984;27;20209;-60
2023/02/11 07:07:47;;;;;;;53.22;32.97;;;;;;;;;;5135953;27;20524;-60
2023/02/11 07:10:14;;;;;;;56.00;33.17;;;;;;;;;;5135835;27;20285;-61
2023/02/11 07:12:41;;;;;;;53.33;31.70;;;;;;;;;;5135658;27;20194;-61
2023/02/11 07:15:09;;;;;;;53.08;33.20;;;;;;;;;;5135915;27;20198;-60
2023/02/11 07:17:36;;;;;;;52.70;32.90;;;;;;;;;;5135653;27;20186;-61
2023/02/11 07:20:03;;;;;;;59.13;34.38;;;;;;;;;;5135634;27;20196;-61
2023/02/11 07:22:30;;;;;;;51.40;33.30;;;;;;;;;;5135623;27;20185;-61
2023/02/11 07:25:04;;;;;;;52.05;32.65;;;;;;;;;;5135748;27;20213;-63
2023/02/11 07:27:31;;;;;;;52.35;33.55;;;;;;;;;;5135387;27;20194;-60
2023/02/11 07:29:57;;;;;;;57.88;33.80;;;;;;;;;;5135116;27;20200;-60
2023/02/11 07:32:24;;;;;;;50.63;31.07;;;;;;;;;;5135458;27;20205;-60
2023/02/11 07:34:51;;;;;;;60.60;35.75;;;;;;;;;;5135249;27;20447;-60
2023/02/11 07:37:18;;;;;;;55.05;35.55;;;;;;;;;;5135297;27;20236;-60
2023/02/11 07:39:45;;;;;;;56.20;34.65;;;;;;;;;;5135084;27;20556;-60
2023/02/11 07:42:13;;;;;;;58.30;35.55;;;;;;;;;;5135020;27;20190;-60
2023/02/11 07:44:40;;;;;;;57.73;33.00;;;;;;;;;;5134989;27;20225;-60
2023/02/11 07:47:07;;;;;;;51.55;35.13;;;;;;;;;;5135110;27;20938;-60
2023/02/11 07:49:34;;;;;;;56.13;34.67;;;;;;;;;;5135009;27;20190;-60
2023/02/11 07:52:01;;;;;;;58.25;34.65;;;;;;;;;;5134898;27;20447;-59
2023/02/11 07:54:28;;;;;;;64.30;36.60;;;;;;;;;;5134795;27;20671;-60
2023/02/11 07:56:55;;;;;;;65.47;36.70;;;;;;;;;;5134968;27;20483;-60
2023/02/11 07:59:24;;;;;;;56.42;33.72;;;;;;;;;;5134870;27;20196;-59
2023/02/11 08:01:51;;;;;;;60.08;35.35;;;;;;;;;;5134948;27;20201;-60
2023/02/11 08:04:18;;;;;;;55.90;35.45;;;;;;;;;;5134754;27;20266;-60
2023/02/11 08:06:45;;;;;;;61.38;36.95;;;;;;;;;;5134419;27;20221;-60
2023/02/11 08:09:14;;;;;;;62.03;35.33;;;;;;;;;;5134573;27;20225;-60
2023/02/11 08:11:41;;;;;;;55.70;34.80;;;;;;;;;;5134823;27;20201;-60
2023/02/11 08:14:09;;;;;;;59.05;36.75;;;;;;;;;;5134647;27;20196;-60
2023/02/11 08:16:38;;;;;;;56.00;33.97;;;;;;;;;;5134549;27;20186;-60
2023/02/11 08:19:06;;;;;;;63.83;37.00;;;;;;;;;;5134384;27;20561;-60
2023/02/11 08:21:33;;;;;;;61.90;38.45;;;;;;;;;;5134271;27;20458;-60
2023/02/11 08:24:01;;;;;;;55.97;33.53;;;;;;;;;;5134555;27;20193;-60
2023/02/11 08:26:30;;;;;;;56.70;35.20;;;;;;;;;;5134210;27;20704;-60
2023/02/11 08:28:58;;;;;;;66.97;36.20;;;;;;;;;;5134295;27;20186;-60
2023/02/11 08:31:26;;;;;;;52.97;32.27;;;;;;;;;;5134326;27;20451;-60
2023/02/11 08:33:56;;;;;;;56.55;33.92;;;;;;;;;;5133982;27;20811;-60
2023/02/11 08:36:24;;;;;;;55.10;31.57;;;;;;;;;;5134438;27;20194;-60
2023/02/11 08:38:52;;;;;;;52.35;33.60;;;;;;;;;;5134249;27;20479;-60
2023/02/11 08:41:19;;;;;;;49.60;30.10;;;;;;;;;;5133739;27;20196;-60
2023/02/11 08:43:46;;;;;;;57.63;33.73;;;;;;;;;;5133686;27;20469;-60
2023/02/11 08:46:14;;;;;;;55.40;34.30;;;;;;;;;;5133836;27;20483;-60
2023/02/11 08:48:41;;;;;;;54.80;34.63;;;;;;;;;;5133912;27;20445;-60
2023/02/11 08:51:10;;;;;;;60.70;35.90;;;;;;;;;;5134166;27;20803;-60
2023/02/11 08:53:37;;;;;;;56.70;32.42;;;;;;;;;;5134011;27;20471;-60
2023/02/11 08:56:04;;;;;;;55.55;33.28;;;;;;;;;;5133927;27;20193;-60
2023/02/11 08:58:31;;;;;;;55.10;34.88;;;;;;;;;;5134216;27;20216;-60
2023/02/11 09:00:58;;;;;;;46.67;32.55;;;;;;;;;;5133813;27;20277;-60
2023/02/11 09:03:25;;;;;;;58.27;34.87;;;;;;;;;;5133636;27;20197;-60
2023/02/11 09:05:52;;;;;;;54.10;32.87;;;;;;;;;;5133813;28;20484;-60
2023/02/11 09:08:21;;;;;;;54.17;34.17;;;;;;;;;;5133876;28;20538;-60
2023/02/11 09:10:48;;;;;;;54.75;34.20;;;;;;;;;;5133772;28;20190;-60
2023/02/11 09:13:16;;;;;;;57.45;33.90;;;;;;;;;;5133666;28;20196;-60
2023/02/11 09:15:45;;;;;;;53.13;33.25;;;;;;;;;;5133525;28;20284;-60
2023/02/11 09:18:12;;;;;;;53.97;32.78;;;;;;;;;;5133743;28;20194;-60
2023/02/11 09:20:39;;;;;;;51.00;32.10;;;;;;;;;;5133762;28;20186;-60
2023/02/11 09:23:06;;;;;;;54.65;31.67;;;;;;;;;;5133805;28;20538;-60
2023/02/11 09:25:34;;;;;;;48.40;29.60;;;;;;;;;;5133674;28;20210;-60
2023/02/11 09:28:01;;;;;;;50.97;31.00;;;;;;;;;;5133759;28;20185;-60
2023/02/11 09:30:28;;;;;;;52.77;32.60;;;;;;;;;;5133852;28;20539;-60
2023/02/11 09:32:55;;;;;;;46.40;30.10;;;;;;;;;;5133528;28;20944;-60
2023/02/11 09:35:22;;;;;;;52.07;34.37;;;;;;;;;;5133845;28;20542;-60
2023/02/11 09:37:49;;;;;;;49.47;30.97;;;;;;;;;;5133565;28;20444;-59
2023/02/11 09:40:16;;;;;;;48.37;30.00;;;;;;;;;;5133480;28;20535;-60
2023/02/11 09:42:46;;;;;;;52.37;32.43;;;;;;;;;;5133210;28;20443;-60
2023/02/11 09:45:16;;;;;;;47.90;30.87;;;;;;;;;;5133316;28;20478;-60
2023/02/11 09:47:47;;;;;;;46.53;29.10;;;;;;;;;;5133353;28;20494;-60
2023/02/11 09:50:15;;;;;;;44.10;29.67;;;;;;;;;;5133369;28;20458;-60
2023/02/11 09:52:46;;;;;;;47.60;30.70;;;;;;;;;;5133434;27;20454;-60
2023/02/11 09:55:18;;;;;;;49.90;31.43;;;;;;;;;;5137284;27;20504;-60
2023/02/11 09:57:46;;;;;;;47.50;29.07;;;;;;;;;;5137536;27;20879;-60
2023/02/11 10:00:18;;;;;;;44.13;29.40;;;;;;;;;;5137312;27;20453;-60
2023/02/11 10:02:53;;;;;;;47.50;29.67;;;;;;;;;;5137500;27;20534;-60
2023/02/11 10:05:26;;;;;;;44.67;29.90;;;;;;;;;;5137090;27;20453;-59
2023/02/11 10:07:57;;;;;;;51.03;29.63;;;;;;;;;;5137022;27;20461;-60
2023/02/11 10:10:33;;;;;;;44.73;30.43;;;;;;;;;;5137141;27;20966;-60
2023/02/11 10:13:07;;;;;;;47.67;29.60;;;;;;;;;;5137041;27;20475;-60
2023/02/11 10:15:41;;;;;;;50.83;29.80;;;;;;;;;;5136822;27;20444;-60
2023/02/11 10:18:16;;;;;;;45.77;30.03;;;;;;;;;;5136868;27;20457;-60
2023/02/11 10:20:47;;;;;;;49.20;29.33;;;;;;;;;;5137066;27;20507;-60
2023/02/11 10:23:16;;;;;;;48.43;30.57;;;;;;;;;;5136910;27;20814;-60
2023/02/11 10:25:44;;;;;;;45.43;30.40;;;;;;;;;;5136649;27;20451;-60
2023/02/11 10:28:14;;;;;;;49.80;29.37;;;;;;;;;;5136826;27;20546;-60
2023/02/11 10:30:44;;;;;;;45.50;29.10;;;;;;;;;;5136897;27;20445;-60
2023/02/11 10:33:13;;;;;;;49.27;29.77;;;;;;;;;;5136854;27;20805;-59
2023/02/11 10:35:42;;;;;;;48.87;31.20;;;;;;;;;;5136719;27;20796;-60
2023/02/11 10:38:09;;;;;;;41.20;28.77;;;;;;;;;;5136613;27;20451;-60
2023/02/11 10:40:36;;;;;;;47.27;28.57;;;;;;;;;;5136565;27;20799;-60
2023/02/11 10:43:05;;;;;;;43.07;29.57;;;;;;;;;;5136303;27;20551;-60
2023/02/11 10:45:35;;;;;;;46.03;29.53;;;;;;;;;;5136159;27;20471;-60
2023/02/11 10:48:05;;;;;;;51.33;30.50;;;;;;;;;;5136389;27;20486;-60
2023/02/11 10:50:33;;;;;;;41.27;27.97;;;;;;;;;;5136511;27;20447;-59
2023/02/11 10:53:18;;;;;;;50.47;29.38;;;;;;;;;;5136160;27;20781;-60
2023/02/11 10:55:53;;;;;;;44.87;28.60;;;;;;;;;;5136713;27;20549;-60
2023/02/11 10:58:24;;;;;;;51.80;30.33;;;;;;;;;;5136273;27;20825;-60
2023/02/11 11:00:53;;;;;;;48.13;29.70;;;;;;;;;;5136255;27;20465;-59
2023/02/11 11:03:21;;;;;;;43.23;28.63;;;;;;;;;;5136085;27;20538;-59
2023/02/11 11:05:49;;;;;;;41.63;27.03;;;;;;;;;;5135249;27;20441;-60
2023/02/11 11:08:17;;;;;;;45.87;28.57;;;;;;;;;;5135912;27;20891;-60
2023/02/11 11:10:45;;;;;;;43.87;28.30;;;;;;;;;;5135996;27;20472;-60
2023/02/11 11:13:24;;;;;;;41.43;28.33;;;;;;;;;;5136009;27;20517;-60
2023/02/11 11:16:07;;;;;;;48.93;28.90;;;;;;;;;;5135813;27;20802;-60
2023/02/11 11:18:34;;;;;;;42.03;29.60;;;;;;;;;;5135521;27;20546;-60
2023/02/11 11:21:01;;;;;;;42.67;29.50;;;;;;;;;;5135709;27;20441;-60
2023/02/11 11:23:30;;;;;;;44.70;27.97;;;;;;;;;;5135360;27;21014;-60
2023/02/11 11:26:07;;;;;;;39.13;26.87;;;;;;;;;;5135385;27;20448;-59
2023/02/11 11:28:37;;;;;;;45.50;29.10;;;;;;;;;;5135510;27;20541;-59
2023/02/11 11:31:06;;;;;;;38.93;26.43;;;;;;;;;;5135472;27;20943;-60
2023/02/11 11:33:34;;;;;;;39.97;27.20;;;;;;;;;;5135612;27;20491;-59
2023/02/11 11:36:03;;;;;;;39.67;26.07;;;;;;;;;;5135418;27;20441;-60
2023/02/11 11:38:30;;;;;;;42.47;28.60;;;;;;;;;;5135419;27;20442;-60
2023/02/11 11:41:16;;;;;;;39.90;28.63;;;;;;;;;;5135345;27;20630;-60
2023/02/11 11:43:54;;;;;;;41.47;27.30;;;;;;;;;;5135212;27;20458;-59
2023/02/11 11:46:25;;;;;;;38.43;26.63;;;;;;;;;;5134929;27;20577;-60
2023/02/11 11:48:54;;;;;;;40.10;28.40;;;;;;;;;;5135143;27;20816;-60
2023/02/11 11:51:22;;;;;;;40.50;26.77;;;;;;;;;;5135106;27;20812;-60
2023/02/11 11:53:53;;;;;;;42.07;26.57;;;;;;;;;;5135080;27;20448;-59
2023/02/11 11:56:22;;;;;;;38.60;25.77;;;;;;;;;;5135239;27;20451;-60
2023/02/11 11:58:49;;;;;;;36.23;26.23;;;;;;;;;;5134907;27;20940;-60
2023/02/11 12:01:20;;;;;;;35.97;26.20;;;;;;;;;;5134879;27;20550;-60
2023/02/11 12:04:01;;;;;;;44.80;28.90;;;;;;;;;;5134801;27;20458;-60
2023/02/11 12:06:33;;;;;;;37.57;27.40;;;;;;;;;;5134644;27;20472;-60
2023/02/11 12:09:06;;;;;;;41.07;27.30;;;;;;;;;;5134869;27;20444;-60
2023/02/11 12:11:37;;;;;;;42.03;25.70;;;;;;;;;;5134567;27;20851;-60
2023/02/11 12:14:12;;;;;;;42.10;26.83;;;;;;;;;;5134456;27;20445;-60
2023/02/11 12:16:46;;;;;;;36.27;25.37;;;;;;;;;;5133448;27;20469;-60
2023/02/11 12:19:41;;;;;;;39.20;24.17;;;;;;;;;;5134604;27;20454;-60
2023/02/11 12:22:11;;;;;;;34.10;23.83;;;;;;;;;;5134616;27;20467;-60
2023/02/11 12:24:46;;;;;;;35.53;25.30;;;;;;;;;;5134478;27;20458;-59
2023/02/11 12:27:16;;;;;;;34.40;24.10;;;;;;;;;;5134356;27;20483;-60
2023/02/11 12:29:46;;;;;;;36.57;25.57;;;;;;;;;;5134638;27;20441;-60
2023/02/11 12:32:18;;;;;;;32.10;22.37;;;;;;;;;;5134574;27;20575;-60
2023/02/11 12:35:06;;;;;;;35.70;23.97;;;;;;;;;;5134163;27;20939;-60
2023/02/11 12:37:42;;;;;;;33.67;23.17;;;;;;;;;;5126265;27;20444;-60
2023/02/11 12:40:13;;;;;;;32.40;22.60;;;;;;;;;;5134179;27;20448;-60
2023/02/11 12:45:39;;;;;;;35.03;23.17;;;;;;;;;;5134069;27;20544;-60
2023/02/11 12:48:13;;;;;;;30.77;22.40;;;;;;;;;;5133947;27;20484;-60
2023/02/11 12:50:45;;;;;;;35.33;23.97;;;;;;;;;;5134219;27;20454;-60
2023/02/11 12:53:20;;;;;;;33.43;22.17;;;;;;;;;;5134210;27;20441;-60
2023/02/11 12:55:49;;;;;;;28.60;21.97;;;;;;;;;;5134089;27;20440;-59
2023/02/11 12:58:18;;;;;;;32.17;22.10;;;;;;;;;;5133996;27;20441;-60
2023/02/11 13:00:47;;;;;;;31.00;21.13;;;;;;;;;;5133807;27;20447;-60
2023/02/11 13:03:16;;;;;;;30.23;22.77;;;;;;;;;;5133910;27;20449;-60
2023/02/11 13:05:45;;;;;;;33.20;21.80;;;;;;;;;;5133917;27;20449;-60
2023/02/11 13:08:15;;;;;;;26.57;21.57;;;;;;;;;;5133915;28;20574;-60
2023/02/11 13:10:46;;;;;;;28.40;19.90;;;;;;;;;;5133733;28;20459;-60
2023/02/11 13:13:17;;;;;;;32.73;20.03;;;;;;;;;;5133817;28;20947;-60
2023/02/11 13:15:45;;;;;;;30.53;21.37;;;;;;;;;;5133936;28;20437;-60
2023/02/11 13:18:20;;;;;;;28.83;20.57;;;;;;;;;;5133880;28;20455;-59
2023/02/11 13:20:50;;;;;;;25.60;20.10;;;;;;;;;;5133723;28;20475;-60
2023/02/11 13:23:23;;;;;;;25.27;19.00;;;;;;;;;;5133693;28;20532;-60
2023/02/11 13:25:55;;;;;;;28.20;19.53;;;;;;;;;;5133739;28;20504;-65
2023/02/11 13:28:26;;;;;;;31.60;19.80;;;;;;;;;;5135231;27;20480;-60
2023/02/11 13:31:01;;;;;;;31.37;20.43;;;;;;;;;;5137997;27;20458;-60
2023/02/11 13:33:32;;;;;;;25.47;20.30;;;;;;;;;;5137940;27;20451;-60
2023/02/11 13:36:26;;;;;;;23.17;18.13;;;;;;;;;;5137742;27;20815;-60
2023/02/11 13:39:11;;;;;;;29.57;20.80;;;;;;;;;;5077915;27;20448;-60
2023/02/11 13:41:41;;;;;;;24.37;19.40;;;;;;;;;;5137796;27;20955;-60
2023/02/11 13:44:21;;;;;;;28.23;19.23;;;;;;;;;;5137569;27;20447;-60
2023/02/11 13:46:52;;;;;;;27.97;18.80;;;;;;;;;;5137496;27;20454;-60
2023/02/11 13:49:21;;;;;;;24.07;18.57;;;;;;;;;;5137716;27;20448;-61
2023/02/11 13:51:48;;;;;;;28.10;19.53;;;;;;;;;;5137532;27;20441;-60
2023/02/11 13:54:23;;;;;;;26.73;19.33;;;;;;;;;;5137200;27;20947;-60
2023/02/11 13:57:04;;;;;;;26.47;18.40;;;;;;;;;;5137330;27;20465;-61
2023/02/11 13:59:52;;;;;;;26.07;19.37;;;;;;;;;;5136920;27;20447;-60
2023/02/11 14:10:58;;;;;;;25.63;19.17;;;;;;;;;;5137283;27;20438;-61
2023/02/11 14:13:26;;;;;;;25.97;19.87;;;;;;;;;;5137150;27;20447;-60
2023/02/11 14:16:09;;;;;;;24.37;18.40;;;;;;;;;;5136975;27;20517;-60
2023/02/11 14:18:38;;;;;;;27.20;19.33;;;;;;;;;;5137085;27;20500;-61
2023/02/11 14:21:11;;;;;;;27.03;19.50;;;;;;;;;;5137052;27;20486;-61
2023/02/11 14:23:38;;;;;;;24.63;17.50;;;;;;;;;;5136945;27;20448;-60
2023/02/11 14:26:12;;;;;;;27.30;18.77;;;;;;;;;;5136771;27;20447;-60
2023/02/11 14:28:40;;;;;;;23.47;17.20;;;;;;;;;;5137030;27;20487;-60
2023/02/11 14:31:10;;;;;;;25.13;18.03;;;;;;;;;;5137063;27;20811;-60
2023/02/11 14:33:48;;;;;;;30.50;19.40;;;;;;;;;;5136855;27;20487;-60
2023/02/11 14:36:23;;;;;;;24.00;19.30;;;;;;;;;;5136785;27;20450;-60
2023/02/11 14:38:56;;;;;;;27.23;18.63;;;;;;;;;;5136466;27;20441;-60
2023/02/11 14:41:24;;;;;;;27.60;19.20;;;;;;;;;;5135672;27;20499;-60
2023/02/11 14:43:52;;;;;;;25.27;18.80;;;;;;;;;;5136584;27;20860;-60